Terminal Aerodrome Forecast
Issued by NWS

Home | Current Version | Previous Version | Text Only | Print | Product List | Glossary On
Versions: 1 2 3 4 5 6 7 8 9 10 11 12 13 14
000
FTUS45 KRIW 301125
TAFPNA
TAF
KPNA 301125Z 3012/3112 29006KT P6SM SCT120
     FM301700 28008KT P6SM VCSH SCT110 BKN200
     FM302100 30013G21KT P6SM VCTS SCT100CB BKN200
     FM310200 30008KT P6SM SCT110
      AMD LTD TO CLD VIS AND WIND=

USA.gov is the U.S. government's official web portal to all federal, state and local government web resources and services.